Bad Axe, MI

9:22 PM EDT on April 27, 2015 (GMT -0400)
Huron Doll Repair Bad Axe (989) 269-7766 | | Change Station
CLOSE
Current Station
Personal Weather Station
Location: Bad Axe, MI
Elevation: 761 ft
Nearby Weather Stations

Elev 761 ft 43.80 °N, 83.02 °W | Updated 13 minutes ago

Clear
Clear
42.8 °F
Feels Like 43 °F
N
0.0
Wind Variable Wind from NE

Today
High -- | Low -- °F
--% Chance of Precip.
Yesterday
High -- | Low -- °F
Precip. -- in
6:30 AM 8:29 PM
Waxing Gibbous, 69% visible
Pressure 30.10 in
Visibility 10.0 miles
Clouds Clear
Windchill 43 °F
Dew Point 34 °F
Humidity 72%
Rainfall 0.02 in
Snow Depth Not available.
UV 0 out of 12
Pollen 10.40 out of 12
Air Quality Not available.
Flu Activity Regional
METAR KBAX 280114Z AUTO 00000KT 10SM CLR 06/00 A3010 RMK AO2 T00550000

More Conditions Fewer Conditions

Pressure 30.10 in
Visibility 10.0 miles
Clouds Clear
Windchill 43 °F
Dew Point 34 °F
Humidity 72%
Rainfall 0.02 in
Snow Depth Not available.
UV 0 out of 12
Pollen 10.40 out of 12
Air Quality Not available.
Flu Activity Regional
METAR KBAX 280114Z AUTO 00000KT 10SM CLR 06/00 A3010 RMK AO2 T00550000

More Conditions Fewer Conditions

10-Day Weather Forecast

Almanac

Astronomy

Apr. 27, 2015 Rise Set
Actual Time
Civil Twilight
Nautical Twilight
Astronomical Twilight
Moon
Length of Visible Light
Length of Day
Tomorrow will be .
, % of the Moon is Illuminated

Today's Extremes

State Highs State Lows

Community

WunderPhotos

Upload Photos

1,817,508 photos uploaded!

WunderBlogs® & News

Nearby

Air Quality

  Air Quality AQ Index Pollutant
Not available.

Snow Depth

Station Depth Elevation

Earthquake Activity

City Distance Mag. Time & Date
Minimum magnitude displayed is 2.5.

Coastal Water Temperatures

Place Temperature

Stations

Nearby Weather Stations

Station Location Temp. Windchill Dew Point Humidity Wind Precip. Elev Updated Type